This is the latest recevied weather packets stored in our database for station/object E25XKG-2. If no packets are shown the sender has not sent any weather packets the latest 10 day(s).
| Time | Temp. | Humidity | Pressure | Rain* | Wind** | Luminosity | Snow |
|---|---|---|---|---|---|---|---|
| 1777995154 | 37.22° C | 39% | 1004 hPa | - | - | 0 W/m² | - |
| 1777993329 | 37.22° C | 39% | 1003 hPa | - | - | 0 W/m² | - |
| 1777987853 | 38.33° C | 37% | 1002 hPa | - | - | 0 W/m² | - |
| 1777984202 | 39.44° C | 36% | 1001 hPa | - | - | 0 W/m² | - |
| 1777980551 | 40° C | 35% | 1000 hPa | - | - | 0 W/m² | - |
| 1777978726 | 40° C | 36% | 1000 hPa | - | - | 0 W/m² | - |
| 1777975075 | 41.11° C | 35% | 1000 hPa | - | - | 0 W/m² | - |
| 1777973249 | 40° C | 36% | 1000 hPa | - | - | 0 W/m² | - |
| 1777971424 | 39.44° C | 36% | 1000 hPa | - | - | 0 W/m² | - |
| 1777969598 | 38.89° C | 36% | 1001 hPa | - | - | 0 W/m² | - |
| 1777967773 | 38.33° C | 38% | 1001 hPa | - | - | 0 W/m² | - |
| 1777965947 | 37.78° C | 39% | 1002 hPa | - | - | 0 W/m² | - |
| 1777964122 | 37.22° C | 40% | 1002 hPa | - | - | 0 W/m² | - |
| 1777962297 | 36.11° C | 41% | 1003 hPa | - | - | 0 W/m² | - |
| 1777960471 | 35.56° C | 43% | 1004 hPa | - | - | 0 W/m² | - |
| 1777958646 | 35° C | 45% | 1005 hPa | - | - | 0 W/m² | - |
| 1777956821 | 34.44° C | 46% | 1005 hPa | - | - | 0 W/m² | - |
| 1777954995 | 33.89° C | 48% | 1006 hPa | - | - | 0 W/m² | - |
| 1777933079 | 33.89° C | 45% | 1005 hPa | - | - | 0 W/m² | - |
| 1777933054 | 33.89° C | 45% | 1005 hPa | - | - | 0 W/m² | - |
| 1777931228 | 34.44° C | 45% | 1005 hPa | - | - | 0 W/m² | - |
| 1777929403 | 34.44° C | 44% | 1005 hPa | - | - | 0 W/m² | - |
| 1777918450 | 36.67° C | 39% | 1004 hPa | - | - | 0 W/m² | - |
| 1777914799 | 37.22° C | 38% | 1005 hPa | - | - | 0 W/m² | - |
| 1777911148 | 37.78° C | 37% | 1005 hPa | - | - | 0 W/m² | - |
* Rain since midnight (hover to see other rain measurements)
** Current wind speed in m/s (hover to see current wind gust speed)